Spring Ranch, Nebraska
Current Conditions -  °F | °C
As of 12:08 PM on Sunday 25 Jan 2015 (Local Time) from KHSI Reporting Station
Overcast Overcast  
Wind Chill: 32°   Ceiling: 3000
Heat Index: 42°   Visibility: 10mi
Dew Point: 29°   Wind: 24mph
Humidity: 60%   Direction: 360°N
Pressure: 30.03"   Gusts: 32mph
Location:  40.387°N, 98.1945°W
Report Text: KHSI 251808Z AUTO 36021G28KT 10SM OVC030 06/M02 A3003 RMK AO2 PK WND 36028/1756 T00561017
Loading
Personal Weather Stations






























Interactive Weather Map New forecast layout! Learn more

10-Day Weather Forecast

Advertisements
Track Severe Weather on mobile